Time;durP1;ratioP1;P1;durP2;ratioP2;P2;SDS_P1;SDS_P2;PMS_P1;PMS_P2;Temp;Humidity;BMP_temperature;BMP_pressure;BME280_temperature;BME280_humidity;BME280_pressure;Samples;Min_cycle;Max_cycle;Signal;HPM_P1;HPM_P2
2023/12/25 00:01:08;;;;;;;16.13;3.15;;;11.90;99.90;;;;;;4946787;28;20101;-74
2023/12/25 00:03:34;;;;;;;15.85;3.33;;;11.90;99.90;;;;;;4973384;28;20047;-77
2023/12/25 00:06:00;;;;;;;22.55;3.58;;;11.90;99.90;;;;;;4962158;28;20077;-77
2023/12/25 00:08:26;;;;;;;17.55;3.15;;;11.90;99.90;;;;;;4987779;28;20042;-76
2023/12/25 00:10:51;;;;;;;15.98;3.38;;;11.90;99.90;;;;;;4971437;28;20039;-75
2023/12/25 00:13:17;;;;;;;22.73;3.83;;;11.90;99.90;;;;;;4963847;28;20078;-74
2023/12/25 00:15:43;;;;;;;12.80;2.50;;;11.90;99.90;;;;;;4959239;28;20521;-75
2023/12/25 00:18:09;;;;;;;18.15;3.67;;;11.90;99.90;;;;;;4945114;28;20085;-75
2023/12/25 00:20:34;;;;;;;17.45;3.45;;;11.90;99.90;;;;;;4957229;28;20043;-76
2023/12/25 00:23:00;;;;;;;16.20;2.92;;;11.90;99.90;;;;;;4961319;28;20043;-74
2023/12/25 00:25:26;;;;;;;19.73;3.33;;;11.90;99.90;;;;;;4952002;28;20542;-74
2023/12/25 00:27:52;;;;;;;13.35;2.75;;;11.90;99.90;;;;;;4965366;28;20043;-75
2023/12/25 00:30:19;;;;;;;12.43;3.33;;;12.00;99.90;;;;;;4962377;28;20050;-76
2023/12/25 00:32:45;;;;;;;14.07;3.20;;;11.80;99.90;;;;;;4957649;28;20051;-77
2023/12/25 00:35:10;;;;;;;12.93;2.85;;;11.80;99.90;;;;;;4949193;28;20743;-74
2023/12/25 00:37:36;;;;;;;13.77;3.08;;;11.80;99.90;;;;;;4952978;28;20678;-74
2023/12/25 00:40:02;;;;;;;14.60;2.80;;;11.70;99.90;;;;;;4955330;28;20446;-74
2023/12/25 00:42:28;;;;;;;19.05;3.25;;;11.70;99.90;;;;;;4952501;28;20560;-75
2023/12/25 00:44:54;;;;;;;18.17;3.90;;;11.70;99.90;;;;;;4962521;28;20149;-74
2023/12/25 00:47:19;;;;;;;15.20;2.72;;;11.70;99.90;;;;;;4959608;28;20038;-76
2023/12/25 00:49:45;;;;;;;13.65;2.92;;;11.70;99.90;;;;;;4970913;28;20079;-78
2023/12/25 00:52:14;;;;;;;21.58;3.47;;;11.60;99.90;;;;;;4974127;28;20046;-74
2023/12/25 00:54:39;;;;;;;17.20;3.13;;;11.60;99.90;;;;;;4959584;28;20051;-77
2023/12/25 00:57:05;;;;;;;15.20;3.10;;;11.60;99.90;;;;;;4953216;28;20051;-74
2023/12/25 00:59:31;;;;;;;21.75;3.45;;;11.60;99.90;;;;;;4949861;28;20443;-74
2023/12/25 01:01:57;;;;;;;17.45;3.58;;;11.60;99.90;;;;;;4946408;28;20043;-74
2023/12/25 01:04:22;;;;;;;15.32;3.17;;;11.50;99.90;;;;;;4955289;28;20521;-74
2023/12/25 01:06:48;;;;;;;19.80;3.13;;;11.50;99.90;;;;;;4965907;28;20122;-75
2023/12/25 01:09:14;;;;;;;24.27;3.85;;;11.60;99.90;;;;;;4975546;28;20129;-76
2023/12/25 01:11:40;;;;;;;22.58;3.28;;;11.60;99.90;;;;;;4969738;28;20620;-75
2023/12/25 01:14:07;;;;;;;15.15;3.28;;;11.50;99.90;;;;;;4962652;28;20410;-74
2023/12/25 01:16:34;;;;;;;18.30;3.30;;;11.50;99.90;;;;;;4968354;28;20074;-74
2023/12/25 01:18:59;;;;;;;18.15;3.05;;;11.50;99.90;;;;;;4963535;28;20104;-75
2023/12/25 01:21:25;;;;;;;17.85;2.85;;;11.50;99.90;;;;;;4961501;28;20066;-74
2023/12/25 01:23:51;;;;;;;14.20;2.92;;;11.50;99.90;;;;;;4971132;28;20050;-80
2023/12/25 01:26:18;;;;;;;19.83;4.03;;;11.50;99.90;;;;;;4965226;28;20050;-76
2023/12/25 01:28:44;;;;;;;19.95;3.75;;;11.50;99.90;;;;;;4958370;28;20078;-74
2023/12/25 01:31:09;;;;;;;18.67;4.55;;;11.50;99.90;;;;;;4961589;28;20035;-74
2023/12/25 01:33:35;;;;;;;19.60;3.28;;;11.50;99.90;;;;;;4941311;28;20110;-74
2023/12/25 01:36:05;;;;;;;17.73;3.83;;;11.50;99.90;;;;;;4953467;28;20082;-74
2023/12/25 01:38:31;;;;;;;20.27;4.47;;;11.50;99.90;;;;;;4961410;28;20050;-77
2023/12/25 01:40:59;;;;;;;18.00;3.85;;;11.50;99.90;;;;;;4946963;28;20160;-77
2023/12/25 01:43:25;;;;;;;22.23;3.63;;;11.50;99.90;;;;;;4966307;28;20071;-74
2023/12/25 01:45:51;;;;;;;20.65;3.60;;;11.50;99.90;;;;;;4951419;28;20039;-76
2023/12/25 01:48:18;;;;;;;18.42;3.53;;;11.40;99.90;;;;;;4942808;28;20077;-76
2023/12/25 01:50:46;;;;;;;20.20;3.53;;;11.40;99.90;;;;;;4951525;28;20048;-74
2023/12/25 01:53:12;;;;;;;17.80;3.42;;;11.40;99.90;;;;;;4953845;28;20050;-75
2023/12/25 01:55:38;;;;;;;18.50;4.15;;;11.40;99.90;;;;;;4946755;28;20051;-74
2023/12/25 01:58:03;;;;;;;14.32;2.58;;;11.30;99.90;;;;;;4950635;28;20577;-77
2023/12/25 02:00:39;;;;;;;20.05;3.10;;;11.30;99.90;;;;;;4972632;28;20129;-77
2023/12/25 02:03:05;;;;;;;13.57;2.90;;;11.50;99.90;;;;;;4959999;28;20419;-74
2023/12/25 02:05:30;;;;;;;14.50;2.60;;;11.40;99.90;;;;;;4958603;28;20053;-74
2023/12/25 02:07:57;;;;;;;17.52;3.10;;;11.30;99.90;;;;;;4961921;28;20047;-74
2023/12/25 02:10:39;;;;;;;14.43;2.95;;;11.30;99.90;;;;;;4957185;28;20055;-77
2023/12/25 02:13:05;;;;;;;14.73;2.90;;;11.30;99.90;;;;;;4950227;28;20046;-74
2023/12/25 02:15:31;;;;;;;15.68;2.92;;;11.30;99.90;;;;;;4967333;28;20395;-74
2023/12/25 02:17:57;;;;;;;16.17;2.65;;;11.60;99.90;;;;;;4947436;28;20125;-74
2023/12/25 02:20:23;;;;;;;21.08;3.47;;;11.30;99.90;;;;;;4952509;28;20043;-74
2023/12/25 02:22:50;;;;;;;15.90;3.05;;;11.30;99.90;;;;;;4962158;28;20149;-76
2023/12/25 02:25:32;;;;;;;10.30;2.50;;;11.30;99.90;;;;;;4958385;28;20049;-74
2023/12/25 02:28:01;;;;;;;13.50;2.80;;;11.30;99.90;;;;;;4948227;28;20062;-76
2023/12/25 02:30:28;;;;;;;12.73;3.45;;;11.30;99.90;;;;;;4958393;28;20093;-74
2023/12/25 02:33:17;;;;;;;16.83;2.58;;;11.30;99.90;;;;;;4957981;28;20062;-82
2023/12/25 02:35:43;;;;;;;9.90;2.42;;;11.30;99.90;;;;;;4952350;28;20054;-74
2023/12/25 02:38:08;;;;;;;10.85;2.90;;;11.30;99.90;;;;;;4943230;28;20402;-74
2023/12/25 02:40:40;;;;;;;12.55;2.72;;;11.30;99.90;;;;;;4967882;28;20520;-79
2023/12/25 02:43:08;;;;;;;13.50;2.50;;;11.20;99.90;;;;;;4966635;28;20054;-75
2023/12/25 02:45:33;;;;;;;11.38;2.35;;;11.20;99.90;;;;;;4966332;28;20047;-75
2023/12/25 02:47:59;;;;;;;14.70;2.72;;;11.20;99.90;;;;;;4968426;28;20062;-76
2023/12/25 02:50:24;;;;;;;13.85;2.33;;;11.20;99.90;;;;;;4967609;28;20118;-78
2023/12/25 02:52:50;;;;;;;16.95;2.70;;;11.20;99.90;;;;;;4972439;28;20526;-74
2023/12/25 02:55:16;;;;;;;14.13;2.80;;;11.20;99.90;;;;;;4974313;28;20414;-74
2023/12/25 02:57:41;;;;;;;10.27;2.35;;;11.10;99.90;;;;;;4968476;28;20038;-74
2023/12/25 03:00:07;;;;;;;11.25;2.20;;;11.10;99.90;;;;;;4968042;28;20042;-77
2023/12/25 03:02:33;;;;;;;12.38;2.20;;;11.10;99.90;;;;;;4967801;28;20054;-77
2023/12/25 03:04:58;;;;;;;12.75;2.20;;;11.20;99.90;;;;;;4969182;28;20477;-74
2023/12/25 03:07:24;;;;;;;10.05;2.35;;;11.20;99.90;;;;;;4968401;28;20046;-74
2023/12/25 03:09:49;;;;;;;7.80;1.88;;;11.20;99.90;;;;;;4968899;28;20098;-74
2023/12/25 03:12:15;;;;;;;9.70;2.05;;;11.20;99.90;;;;;;4973999;28;20039;-76
2023/12/25 03:14:41;;;;;;;14.43;2.30;;;11.20;99.90;;;;;;4969490;28;20054;-76
2023/12/25 03:17:06;;;;;;;8.85;2.33;;;11.30;99.90;;;;;;4938863;28;20043;-74
2023/12/25 03:19:32;;;;;;;17.08;2.13;;;11.20;99.90;;;;;;4975834;28;20045;-74
2023/12/25 03:21:57;;;;;;;10.30;2.10;;;11.20;99.90;;;;;;4970306;28;20078;-77
2023/12/25 03:24:23;;;;;;;12.32;2.30;;;11.20;99.90;;;;;;4965101;28;20054;-74
2023/12/25 03:26:49;;;;;;;6.70;2.05;;;11.20;99.90;;;;;;4970043;28;20043;-74
2023/12/25 03:29:15;;;;;;;7.60;1.70;;;11.30;99.90;;;;;;4962350;28;20118;-74
2023/12/25 03:31:40;;;;;;;9.23;1.73;;;11.20;99.90;;;;;;4968968;28;20058;-74
2023/12/25 03:34:06;;;;;;;14.82;2.55;;;11.20;99.90;;;;;;4967409;28;20052;-75
2023/12/25 03:36:32;;;;;;;6.93;1.85;;;11.20;99.90;;;;;;4972507;28;20046;-77
2023/12/25 03:38:57;;;;;;;9.10;2.15;;;11.30;99.90;;;;;;4971499;28;20049;-74
2023/12/25 03:41:23;;;;;;;14.73;2.23;;;11.20;99.90;;;;;;4964194;28;20046;-74
2023/12/25 03:43:48;;;;;;;7.53;1.90;;;11.20;99.90;;;;;;4972502;28;20497;-74
2023/12/25 03:46:14;;;;;;;9.95;2.25;;;11.30;99.90;;;;;;4977977;28;20517;-74
2023/12/25 03:48:39;;;;;;;8.50;1.60;;;11.20;99.90;;;;;;4973526;28;20137;-74
2023/12/25 03:51:05;;;;;;;11.38;1.90;;;11.30;99.90;;;;;;4966461;28;20035;-74
2023/12/25 03:53:31;;;;;;;9.30;1.60;;;11.30;99.90;;;;;;4970844;28;20077;-76
2023/12/25 03:56:02;;;;;;;11.10;2.08;;;11.20;99.90;;;;;;4972413;28;20081;-77
2023/12/25 03:58:28;;;;;;;7.73;2.13;;;11.20;99.90;;;;;;4968651;28;20788;-74
2023/12/25 04:00:53;;;;;;;8.20;1.77;;;11.20;99.90;;;;;;4971833;28;20101;-74
2023/12/25 04:03:19;;;;;;;10.98;1.73;;;11.20;99.90;;;;;;4970843;28;20083;-77
2023/12/25 04:05:44;;;;;;;10.60;1.70;;;11.30;99.90;;;;;;4971721;28;20061;-75
2023/12/25 04:08:10;;;;;;;8.38;2.03;;;11.20;99.90;;;;;;4977177;28;20816;-74
2023/12/25 04:10:35;;;;;;;13.88;2.38;;;11.20;99.90;;;;;;4971062;28;20417;-76
2023/12/25 04:13:01;;;;;;;9.82;1.73;;;11.20;99.90;;;;;;4971522;28;20042;-77
2023/12/25 04:15:26;;;;;;;16.55;2.15;;;11.20;99.90;;;;;;4969288;28;20057;-74
2023/12/25 04:17:52;;;;;;;9.43;1.65;;;11.30;99.90;;;;;;4972778;28;20109;-76
2023/12/25 04:20:17;;;;;;;8.30;2.13;;;11.30;99.90;;;;;;4979987;28;20494;-75
2023/12/25 04:22:43;;;;;;;7.10;1.55;;;11.20;99.90;;;;;;4984229;28;20090;-77
2023/12/25 04:25:09;;;;;;;9.57;1.63;;;11.20;99.90;;;;;;4969232;28;20042;-74
2023/12/25 04:27:34;;;;;;;10.52;1.60;;;11.20;99.90;;;;;;4981997;28;20054;-74
2023/12/25 04:30:00;;;;;;;12.70;2.10;;;11.20;99.90;;;;;;4970880;28;20038;-74
2023/12/25 04:32:25;;;;;;;11.93;2.08;;;11.30;99.90;;;;;;4966988;28;20043;-77
2023/12/25 04:34:51;;;;;;;7.50;1.73;;;11.30;99.90;;;;;;4973118;28;20050;-77
2023/12/25 04:37:17;;;;;;;7.32;2.47;;;11.30;99.90;;;;;;4979454;28;20034;-74
2023/12/25 04:39:43;;;;;;;7.13;1.52;;;11.30;99.90;;;;;;4978498;28;20054;-74
2023/12/25 04:42:08;;;;;;;11.38;2.30;;;11.30;99.90;;;;;;4975739;28;20054;-75
2023/12/25 04:44:34;;;;;;;12.82;2.00;;;11.30;99.90;;;;;;4980910;28;20047;-79
2023/12/25 04:46:59;;;;;;;12.48;2.60;;;11.30;99.90;;;;;;4969198;28;20089;-74
2023/12/25 04:49:25;;;;;;;13.15;2.45;;;11.30;99.90;;;;;;4966563;28;20130;-74
2023/12/25 04:51:50;;;;;;;12.02;2.10;;;11.30;99.90;;;;;;4967868;28;20082;-75
2023/12/25 04:54:16;;;;;;;11.48;2.00;;;11.30;99.90;;;;;;4963329;28;20077;-79
2023/12/25 04:56:41;;;;;;;13.05;2.30;;;11.30;99.90;;;;;;4981044;28;20049;-75
2023/12/25 04:59:09;;;;;;;12.02;2.08;;;11.30;99.90;;;;;;4969874;28;20038;-75
2023/12/25 05:01:34;;;;;;;12.48;2.58;;;11.30;99.90;;;;;;4966271;28;20093;-77
2023/12/25 05:04:00;;;;;;;7.97;1.90;;;11.30;99.90;;;;;;4968750;28;20054;-74
2023/12/25 05:06:25;;;;;;;9.98;2.40;;;11.30;99.90;;;;;;4982035;28;20047;-74
2023/12/25 05:08:51;;;;;;;11.20;2.30;;;11.30;99.90;;;;;;4967156;28;20486;-75
2023/12/25 05:11:16;;;;;;;14.45;2.13;;;11.30;99.90;;;;;;4978703;28;20043;-76
2023/12/25 05:13:42;;;;;;;11.35;2.22;;;11.30;99.90;;;;;;4981104;28;20571;-74
2023/12/25 05:16:08;;;;;;;11.20;2.80;;;11.20;99.90;;;;;;4970338;28;20046;-74
2023/12/25 05:18:33;;;;;;;11.60;2.20;;;11.30;99.90;;;;;;4967523;28;20043;-74
2023/12/25 05:20:59;;;;;;;13.45;2.92;;;11.20;99.90;;;;;;4962390;28;20089;-76
2023/12/25 05:23:24;;;;;;;18.05;2.75;;;11.20;99.90;;;;;;4966968;28;20051;-74
2023/12/25 05:25:50;;;;;;;11.57;2.60;;;11.20;99.90;;;;;;4978126;28;20494;-75
2023/12/25 05:28:16;;;;;;;16.20;2.40;;;11.20;99.90;;;;;;4958041;28;20046;-74
2023/12/25 05:30:41;;;;;;;13.35;2.45;;;11.20;99.90;;;;;;4969775;28;20047;-76
2023/12/25 05:33:07;;;;;;;13.50;2.63;;;11.20;99.90;;;;;;4977737;28;20047;-75
2023/12/25 05:35:32;;;;;;;8.38;2.05;;;11.20;99.90;;;;;;4968642;28;20038;-75
2023/12/25 05:37:58;;;;;;;14.75;2.50;;;11.20;99.90;;;;;;4970052;28;20042;-74
2023/12/25 05:40:24;;;;;;;12.68;2.67;;;11.20;99.90;;;;;;4978141;28;20042;-76
2023/12/25 05:42:50;;;;;;;12.95;2.35;;;11.30;99.90;;;;;;4970246;28;20059;-74
2023/12/25 05:45:16;;;;;;;10.30;2.28;;;11.20;99.90;;;;;;4969911;28;20043;-75
2023/12/25 05:47:41;;;;;;;15.73;2.53;;;11.20;99.90;;;;;;4969343;28;20482;-77
2023/12/25 05:50:10;;;;;;;13.05;2.42;;;11.20;99.90;;;;;;4961631;28;20047;-74
2023/12/25 05:52:35;;;;;;;11.60;2.20;;;11.20;99.90;;;;;;4968701;28;20101;-74
2023/12/25 05:55:01;;;;;;;15.35;2.83;;;11.10;99.90;;;;;;4975061;28;20046;-74
2023/12/25 05:57:28;;;;;;;16.90;2.40;;;11.20;99.90;;;;;;4977789;28;20049;-74
2023/12/25 05:59:54;;;;;;;10.20;1.95;;;11.20;99.90;;;;;;4978078;28;20121;-77
2023/12/25 06:02:19;;;;;;;11.80;2.45;;;11.10;99.90;;;;;;4977981;28;20172;-74
2023/12/25 06:04:45;;;;;;;9.02;2.45;;;11.10;99.90;;;;;;4977676;28;20038;-74
2023/12/25 06:07:11;;;;;;;13.05;2.50;;;11.10;99.90;;;;;;4980106;28;20042;-74
2023/12/25 06:09:37;;;;;;;14.80;2.20;;;11.10;99.90;;;;;;4968226;28;20050;-75
2023/12/25 06:12:03;;;;;;;14.77;2.60;;;11.10;99.90;;;;;;4976495;28;20047;-74
2023/12/25 06:14:28;;;;;;;13.18;2.42;;;11.00;99.90;;;;;;4965750;28;20062;-76
2023/12/25 06:16:54;;;;;;;12.02;2.28;;;11.00;99.90;;;;;;4969455;28;20520;-77
2023/12/25 06:19:20;;;;;;;20.55;3.15;;;11.00;99.90;;;;;;4969891;28;20437;-76
2023/12/25 06:21:45;;;;;;;10.45;2.55;;;11.00;99.90;;;;;;4973430;28;20050;-74
2023/12/25 06:24:11;;;;;;;14.77;2.67;;;11.00;99.90;;;;;;4964728;28;20058;-74
2023/12/25 06:26:36;;;;;;;14.27;2.63;;;11.00;99.90;;;;;;4970771;28;20049;-77
2023/12/25 06:29:03;;;;;;;12.52;2.53;;;11.00;99.90;;;;;;4959817;28;20093;-74
2023/12/25 06:31:28;;;;;;;16.45;2.60;;;10.90;99.90;;;;;;4978559;28;20050;-74
2023/12/25 06:33:54;;;;;;;15.65;2.53;;;10.90;99.90;;;;;;4977039;28;20042;-74
2023/12/25 06:36:19;;;;;;;10.55;2.28;;;10.90;99.90;;;;;;4966576;28;20486;-74
2023/12/25 06:38:45;;;;;;;11.95;2.05;;;10.80;99.90;;;;;;4969149;28;20093;-76
2023/12/25 06:41:11;;;;;;;14.27;1.95;;;10.80;99.90;;;;;;4976081;28;20043;-74
2023/12/25 06:43:36;;;;;;;14.35;2.20;;;10.80;99.90;;;;;;4951141;28;20057;-75
2023/12/25 06:46:02;;;;;;;15.68;2.58;;;10.30;99.90;;;;;;4965581;28;20461;-74
2023/12/25 06:48:28;;;;;;;12.70;2.65;;;10.80;99.90;;;;;;4968651;28;20046;-76
2023/12/25 06:50:54;;;;;;;12.60;2.30;;;11.10;99.90;;;;;;4964959;28;20054;-74
2023/12/25 06:53:20;;;;;;;11.60;2.10;;;10.80;99.90;;;;;;4973665;28;20055;-77
2023/12/25 06:55:46;;;;;;;10.48;2.00;;;10.70;99.90;;;;;;4964814;28;20085;-77
2023/12/25 06:58:11;;;;;;;12.07;2.10;;;10.70;99.90;;;;;;4965418;28;20054;-77
2023/12/25 07:00:37;;;;;;;13.52;2.78;;;10.70;99.90;;;;;;4969430;28;20046;-74
2023/12/25 07:03:03;;;;;;;13.07;2.53;;;10.70;99.90;;;;;;4975542;28;20125;-74
2023/12/25 07:05:28;;;;;;;12.68;2.42;;;10.70;99.90;;;;;;4968391;28;20066;-74
2023/12/25 07:07:54;;;;;;;11.80;2.58;;;10.70;99.90;;;;;;4979377;28;20129;-76
2023/12/25 07:10:19;;;;;;;10.55;2.30;;;10.70;99.90;;;;;;4970111;28;20404;-74
2023/12/25 07:12:45;;;;;;;12.35;2.15;;;10.60;99.90;;;;;;4972877;28;20051;-74
2023/12/25 07:15:10;;;;;;;11.60;2.00;;;10.80;99.90;;;;;;4979502;28;20055;-74
2023/12/25 07:17:36;;;;;;;10.43;1.75;;;10.60;99.90;;;;;;4972986;28;20066;-77
2023/12/25 07:20:02;;;;;;;9.15;2.13;;;10.60;99.90;;;;;;4975938;28;20112;-74
2023/12/25 07:22:29;;;;;;;9.68;2.00;;;10.60;99.90;;;;;;4970309;28;20043;-77
2023/12/25 07:24:54;;;;;;;11.70;2.55;;;10.60;99.90;;;;;;4971362;28;20131;-76
2023/12/25 07:27:20;;;;;;;9.63;2.10;;;10.50;99.90;;;;;;4983666;28;20079;-74
2023/12/25 07:29:45;;;;;;;10.48;1.83;;;10.50;99.90;;;;;;4970189;28;20587;-74
2023/12/25 07:32:11;;;;;;;14.20;2.35;;;10.40;99.90;;;;;;4969850;28;20417;-74
2023/12/25 07:34:37;;;;;;;7.15;2.05;;;10.40;99.90;;;;;;4976972;28;20070;-73
2023/12/25 07:37:03;;;;;;;7.47;1.95;;;10.40;99.90;;;;;;4970417;28;20042;-76
2023/12/25 07:39:28;;;;;;;12.38;2.33;;;10.30;99.90;;;;;;4966835;28;20066;-77
2023/12/25 07:41:55;;;;;;;7.78;1.80;;;10.30;99.90;;;;;;4972379;28;20070;-74
2023/12/25 07:44:21;;;;;;;9.88;1.98;;;10.30;99.90;;;;;;4968522;28;20097;-78
2023/12/25 07:46:47;;;;;;;7.22;1.40;;;10.20;99.90;;;;;;4954647;28;20042;-76
2023/12/25 07:49:13;;;;;;;10.52;2.03;;;10.20;99.90;;;;;;4970327;28;20039;-74
2023/12/25 07:51:38;;;;;;;10.63;2.20;;;10.10;99.90;;;;;;4968562;28;20046;-75
2023/12/25 07:54:04;;;;;;;8.27;1.83;;;10.10;99.90;;;;;;4971926;28;20042;-75
2023/12/25 07:56:30;;;;;;;10.88;2.47;;;10.10;99.90;;;;;;4982618;28;20047;-74
2023/12/25 07:58:56;;;;;;;8.32;1.88;;;10.10;99.90;;;;;;4965395;28;20100;-74
2023/12/25 08:01:22;;;;;;;10.00;1.80;;;10.10;99.90;;;;;;4953024;28;20478;-74
2023/12/25 08:03:51;;;;;;;10.05;2.00;;;10.10;99.90;;;;;;4971010;28;20049;-74
2023/12/25 08:06:17;;;;;;;9.52;2.00;;;10.10;99.90;;;;;;4960697;28;20689;-74
2023/12/25 08:08:44;;;;;;;12.05;1.70;;;10.00;99.90;;;;;;4970125;28;20478;-74
2023/12/25 08:11:15;;;;;;;9.80;1.92;;;10.00;99.90;;;;;;4972683;28;20066;-74
2023/12/25 08:13:41;;;;;;;10.68;1.85;;;10.00;99.90;;;;;;4970391;28;20778;-75
2023/12/25 08:16:07;;;;;;;11.45;1.83;;;9.90;99.90;;;;;;4970561;28;20050;-74
2023/12/25 08:18:32;;;;;;;14.10;2.00;;;9.90;99.90;;;;;;4981228;28;20043;-75
2023/12/25 08:20:58;;;;;;;8.45;2.00;;;9.90;99.90;;;;;;4979198;28;20612;-74
2023/12/25 08:23:24;;;;;;;11.63;2.30;;;9.90;99.90;;;;;;4969472;28;20391;-77
2023/12/25 08:25:49;;;;;;;9.35;1.67;;;9.90;99.90;;;;;;4979502;28;20413;-74
2023/12/25 08:28:15;;;;;;;11.80;2.10;;;9.80;99.90;;;;;;4968500;28;20174;-74
2023/12/25 08:30:40;;;;;;;14.48;2.53;;;9.90;99.90;;;;;;4979728;28;20078;-74
2023/12/25 08:33:06;;;;;;;12.70;2.05;;;9.80;99.90;;;;;;4979184;28;20047;-77
2023/12/25 08:35:31;;;;;;;9.65;2.35;;;9.80;99.90;;;;;;4979205;28;20049;-74
2023/12/25 08:37:57;;;;;;;12.52;2.00;;;9.80;99.90;;;;;;4963392;28;20043;-74
2023/12/25 08:40:23;;;;;;;16.92;2.88;;;9.80;99.90;;;;;;4979745;28;20516;-75
2023/12/25 08:42:49;;;;;;;12.50;2.80;;;9.80;99.90;;;;;;4970134;28;20054;-76
2023/12/25 08:45:15;;;;;;;12.60;2.20;;;10.60;99.90;;;;;;4968117;28;20085;-76
2023/12/25 08:47:40;;;;;;;8.30;2.08;;;9.70;99.90;;;;;;4969384;28;20082;-76
2023/12/25 08:50:07;;;;;;;12.38;2.30;;;9.70;99.90;;;;;;4978592;28;20550;-74
2023/12/25 08:52:33;;;;;;;9.77;2.17;;;9.70;99.90;;;;;;4969823;28;20097;-75
2023/12/25 08:54:58;;;;;;;13.77;2.10;;;9.70;99.90;;;;;;4979291;28;20043;-74
2023/12/25 08:57:24;;;;;;;14.73;2.38;;;9.80;99.90;;;;;;4969054;28;20046;-74
2023/12/25 08:59:50;;;;;;;11.68;2.17;;;9.70;99.90;;;;;;4971060;28;20564;-74
2023/12/25 09:02:17;;;;;;;12.48;2.63;;;9.70;99.90;;;;;;4966562;28;20043;-74
2023/12/25 09:04:43;;;;;;;11.38;2.33;;;9.80;99.90;;;;;;4969879;28;20043;-76
2023/12/25 09:07:09;;;;;;;17.95;2.75;;;9.80;99.90;;;;;;4966838;28;20067;-76
2023/12/25 09:09:35;;;;;;;17.42;2.47;;;9.80;99.90;;;;;;4978993;28;20098;-76
2023/12/25 09:12:00;;;;;;;16.25;2.80;;;9.80;99.90;;;;;;4970140;28;20126;-74
2023/12/25 09:14:26;;;;;;;15.18;2.72;;;9.90;99.90;;;;;;4983233;28;20561;-79
2023/12/25 09:16:51;;;;;;;13.57;2.72;;;9.80;99.90;;;;;;4978612;28;20105;-74
2023/12/25 09:19:17;;;;;;;12.70;2.42;;;9.90;99.90;;;;;;4979812;28;20062;-77
2023/12/25 09:21:43;;;;;;;11.38;2.15;;;9.90;99.90;;;;;;4966087;28;20058;-74
2023/12/25 09:24:09;;;;;;;11.90;1.92;;;10.30;99.90;;;;;;4965898;28;20486;-77
2023/12/25 09:26:34;;;;;;;13.30;2.45;;;9.90;99.90;;;;;;4970356;28;20039;-74
2023/12/25 09:29:00;;;;;;;17.58;2.80;;;9.90;99.90;;;;;;4966245;28;20039;-74
2023/12/25 09:31:26;;;;;;;16.92;2.58;;;9.90;99.90;;;;;;4969980;28;20731;-77
2023/12/25 09:33:52;;;;;;;14.20;2.75;;;9.90;99.90;;;;;;4978280;28;20050;-77
2023/12/25 09:36:17;;;;;;;14.63;3.17;;;9.90;99.90;;;;;;4967090;28;20531;-76
2023/12/25 09:38:43;;;;;;;15.35;2.83;;;9.90;99.90;;;;;;4970311;28;20481;-75
2023/12/25 09:41:11;;;;;;;14.20;2.17;;;9.90;99.90;;;;;;4977187;28;20407;-74
2023/12/25 09:43:39;;;;;;;13.75;2.42;;;9.90;99.90;;;;;;4957438;28;20055;-74
2023/12/25 09:46:04;;;;;;;13.00;2.90;;;9.90;99.90;;;;;;4966518;28;20043;-75
2023/12/25 09:48:30;;;;;;;14.68;2.67;;;9.90;99.90;;;;;;4969837;28;20569;-77
2023/12/25 09:50:57;;;;;;;15.77;2.78;;;9.90;99.90;;;;;;4964029;28;20050;-77
2023/12/25 09:53:23;;;;;;;9.52;2.38;;;10.00;99.90;;;;;;4969139;28;20054;-74
2023/12/25 09:55:50;;;;;;;10.25;2.55;;;10.00;99.90;;;;;;4969661;28;20042;-75
2023/12/25 09:58:16;;;;;;;13.73;2.33;;;10.00;99.90;;;;;;4953874;28;20054;-74
2023/12/25 10:00:42;;;;;;;16.38;2.40;;;10.10;99.90;;;;;;4970046;28;20051;-75
2023/12/25 10:03:09;;;;;;;12.55;2.40;;;10.10;99.90;;;;;;4963585;28;20121;-74
2023/12/25 10:05:35;;;;;;;14.55;2.92;;;10.20;99.90;;;;;;4975193;28;20039;-74
2023/12/25 10:08:00;;;;;;;13.00;2.10;;;10.20;99.90;;;;;;4960430;28;20046;-77
2023/12/25 10:10:29;;;;;;;15.05;2.65;;;10.20;99.90;;;;;;4969132;28;20067;-74
2023/12/25 10:12:56;;;;;;;14.52;2.70;;;10.30;99.90;;;;;;4969064;28;20038;-77
2023/12/25 10:15:23;;;;;;;11.93;2.22;;;10.30;99.90;;;;;;4965371;28;20390;-74
2023/12/25 10:18:02;;;;;;;11.88;2.28;;;10.30;99.90;;;;;;4969576;28;20054;-77
2023/12/25 10:20:27;;;;;;;13.00;2.42;;;10.40;99.90;;;;;;4966738;28;20122;-74
2023/12/25 10:22:53;;;;;;;10.93;2.72;;;10.40;99.90;;;;;;4975418;28;20043;-77
2023/12/25 10:25:26;;;;;;;14.20;2.22;;;10.40;99.90;;;;;;4977522;28;20081;-74
2023/12/25 10:27:52;;;;;;;11.20;2.25;;;10.40;99.90;;;;;;4965130;28;20058;-74
2023/12/25 10:30:22;;;;;;;15.95;2.58;;;10.50;99.90;;;;;;4967880;28;20051;-74
2023/12/25 10:32:49;;;;;;;10.07;2.45;;;10.50;99.90;;;;;;4964285;28;20047;-74
2023/12/25 10:35:18;;;;;;;15.30;2.80;;;10.50;99.90;;;;;;4967727;28;20080;-74
2023/12/25 10:37:47;;;;;;;19.48;3.03;;;10.60;99.90;;;;;;4968736;28;20048;-75
2023/12/25 10:40:20;;;;;;;13.40;2.65;;;10.60;99.90;;;;;;4968464;28;20058;-74
2023/12/25 10:42:55;;;;;;;11.60;2.58;;;10.60;99.90;;;;;;4968912;28;20058;-74
2023/12/25 10:45:25;;;;;;;10.77;2.63;;;10.60;99.90;;;;;;4958988;28;20450;-74
2023/12/25 10:47:53;;;;;;;12.05;2.30;;;10.60;99.90;;;;;;4969319;28;20043;-74
2023/12/25 10:50:26;;;;;;;17.48;3.00;;;10.60;99.90;;;;;;4949890;28;20086;-78
2023/12/25 10:52:53;;;;;;;14.20;2.38;;;10.70;99.90;;;;;;4982350;28;20049;-74
2023/12/25 10:55:42;;;;;;;16.25;2.78;;;10.70;99.90;;;;;;4967911;28;20043;-76
2023/12/25 10:58:11;;;;;;;12.80;2.78;;;10.70;99.90;;;;;;4964182;28;20042;-74
2023/12/25 11:01:05;;;;;;;15.35;3.13;;;10.70;99.90;;;;;;4976831;28;20137;-74
2023/12/25 11:03:32;;;;;;;13.20;2.53;;;10.70;99.90;;;;;;4960484;28;20094;-76
2023/12/25 11:05:58;;;;;;;9.70;2.45;;;10.70;99.90;;;;;;4967939;28;20043;-74
2023/12/25 11:08:24;;;;;;;12.93;2.92;;;10.70;99.90;;;;;;4969593;28;20042;-74
2023/12/25 11:10:51;;;;;;;10.82;3.35;;;10.70;99.90;;;;;;4967024;28;20058;-74
2023/12/25 11:13:17;;;;;;;7.88;2.28;;;10.70;99.90;;;;;;4961381;28;20125;-77
2023/12/25 11:15:42;;;;;;;16.30;2.38;;;10.70;99.90;;;;;;4965875;28;20130;-74
2023/12/25 11:18:09;;;;;;;11.90;2.70;;;10.60;99.90;;;;;;4975323;28;20646;-74
2023/12/25 11:20:39;;;;;;;16.77;2.75;;;10.70;99.90;;;;;;4966503;28;20470;-74
2023/12/25 11:23:06;;;;;;;13.77;2.45;;;10.70;99.90;;;;;;4969005;28;20038;-76
2023/12/25 11:25:33;;;;;;;15.50;2.40;;;10.70;99.90;;;;;;4967087;28;20047;-75
2023/12/25 11:28:04;;;;;;;13.13;2.25;;;10.70;99.90;;;;;;4965519;28;20139;-78
2023/12/25 11:30:35;;;;;;;16.90;3.03;;;10.70;99.90;;;;;;4969079;28;20510;-74
2023/12/25 11:33:01;;;;;;;11.98;2.33;;;10.70;99.90;;;;;;4964059;28;20054;-74
2023/12/25 11:35:32;;;;;;;16.55;3.05;;;10.70;99.90;;;;;;4968681;28;20398;-74
2023/12/25 11:38:17;;;;;;;10.60;2.60;;;10.70;99.90;;;;;;4963842;28;20043;-74
2023/12/25 11:40:43;;;;;;;13.02;2.30;;;10.70;99.90;;;;;;4964640;28;20137;-74
2023/12/25 11:43:09;;;;;;;12.85;2.25;;;10.70;99.90;;;;;;4961025;28;20051;-77
2023/12/25 11:45:43;;;;;;;17.25;3.20;;;10.70;99.90;;;;;;4968990;28;20066;-74
2023/12/25 11:48:10;;;;;;;11.27;2.13;;;10.70;99.90;;;;;;4966360;28;20047;-74
2023/12/25 11:50:36;;;;;;;9.20;2.60;;;10.70;99.90;;;;;;4973720;28;20137;-74
2023/12/25 11:53:02;;;;;;;12.30;2.58;;;10.70;99.90;;;;;;4965596;28;20129;-74
2023/12/25 11:55:27;;;;;;;16.02;2.97;;;10.70;99.90;;;;;;4963172;28;20074;-80
2023/12/25 11:57:53;;;;;;;13.50;2.55;;;10.70;99.90;;;;;;4972013;28;20438;-76
2023/12/25 12:00:22;;;;;;;14.52;3.20;;;10.70;99.90;;;;;;4966326;28;20084;-76
2023/12/25 12:02:48;;;;;;;12.20;3.15;;;10.70;99.90;;;;;;4950735;28;20117;-74
2023/12/25 12:05:14;;;;;;;11.15;2.45;;;10.80;99.90;;;;;;4968925;28;20517;-74
2023/12/25 12:07:40;;;;;;;14.63;2.70;;;10.70;99.90;;;;;;4968364;28;20662;-74
2023/12/25 12:10:06;;;;;;;9.77;2.65;;;10.80;99.90;;;;;;4971159;28;20121;-74
2023/12/25 12:12:32;;;;;;;8.85;2.60;;;10.70;99.90;;;;;;4965739;28;20047;-77
2023/12/25 12:14:58;;;;;;;12.70;2.53;;;10.80;99.90;;;;;;4964869;28;20038;-74
2023/12/25 12:17:23;;;;;;;11.23;2.58;;;10.80;99.90;;;;;;4982246;28;20505;-74
2023/12/25 12:19:49;;;;;;;8.82;2.95;;;10.70;99.90;;;;;;4970517;28;20042;-74
2023/12/25 12:22:17;;;;;;;17.73;2.92;;;10.80;99.90;;;;;;4968346;28;20561;-75
2023/12/25 12:24:43;;;;;;;12.43;2.83;;;10.80;99.90;;;;;;4969021;28;20505;-74
2023/12/25 12:27:11;;;;;;;12.93;2.83;;;10.80;99.90;;;;;;4947454;28;20075;-74
2023/12/25 12:29:38;;;;;;;11.23;2.85;;;10.80;99.90;;;;;;4968550;28;20058;-74
2023/12/25 12:32:05;;;;;;;10.55;3.25;;;10.90;99.90;;;;;;4970751;28;20524;-77
2023/12/25 12:34:31;;;;;;;7.22;2.35;;;10.90;99.90;;;;;;4967162;28;20574;-77
2023/12/25 12:37:07;;;;;;;12.52;2.70;;;10.90;99.90;;;;;;4969622;28;20122;-74